Time;durP1;ratioP1;P1;durP2;ratioP2;P2;SDS_P1;SDS_P2;PMS_P1;PMS_P2;Temp;Humidity;BMP_temperature;BMP_pressure;BME280_temperature;BME280_humidity;BME280_pressure;Samples;Min_cycle;Max_cycle;Signal;HPM_P1;HPM_P2
2020/12/17 00:00:15;;;;;;;79.78;19.75;;;4.30;99.90;;;;;;5052918;28;20306;-68
2020/12/17 00:02:42;;;;;;;83.28;22.00;;;4.30;99.90;;;;;;5052748;28;20283;-69
2020/12/17 00:05:09;;;;;;;82.55;19.65;;;4.30;99.90;;;;;;5052483;28;20212;-68
2020/12/17 00:07:36;;;;;;;82.25;21.75;;;4.20;99.90;;;;;;5052740;28;20225;-71
2020/12/17 00:10:05;;;;;;;84.13;20.80;;;4.20;99.90;;;;;;5057819;28;20664;-68
2020/12/17 00:12:34;;;;;;;82.30;20.60;;;4.20;99.90;;;;;;5072187;28;20240;-71
2020/12/17 00:15:01;;;;;;;78.13;18.00;;;4.20;99.90;;;;;;5072521;28;20256;-68
2020/12/17 00:17:27;;;;;;;80.78;18.42;;;4.20;99.90;;;;;;5072616;28;20621;-67
2020/12/17 00:19:54;;;;;;;81.22;20.70;;;4.10;99.90;;;;;;5072541;28;20205;-70
2020/12/17 00:22:20;;;;;;;80.65;20.40;;;4.10;99.90;;;;;;5072257;28;20236;-68
2020/12/17 00:24:46;;;;;;;80.65;20.65;;;4.10;99.90;;;;;;5072354;28;20209;-68
2020/12/17 00:27:13;;;;;;;84.65;20.65;;;4.10;99.90;;;;;;5072564;28;20225;-68
2020/12/17 00:29:40;;;;;;;81.10;19.60;;;4.10;99.90;;;;;;5072346;28;20251;-68
2020/12/17 00:32:06;;;;;;;79.63;19.55;;;4.10;99.90;;;;;;5072268;28;20251;-71
2020/12/17 00:34:32;;;;;;;76.43;18.10;;;4.10;99.90;;;;;;5072142;28;20292;-69
2020/12/17 00:36:58;;;;;;;80.07;19.98;;;4.10;99.90;;;;;;5072231;28;20553;-66
2020/12/17 00:39:25;;;;;;;79.57;19.35;;;4.00;99.90;;;;;;5072264;28;20292;-68
2020/12/17 00:41:51;;;;;;;81.30;20.20;;;4.00;99.90;;;;;;5071750;28;20269;-68
2020/12/17 00:44:18;;;;;;;80.82;20.55;;;4.00;99.90;;;;;;5071878;28;20224;-68
2020/12/17 00:46:48;;;;;;;79.65;20.52;;;4.00;99.90;;;;;;5071983;28;20652;-69
2020/12/17 00:49:15;;;;;;;79.90;20.23;;;4.00;99.90;;;;;;5071732;28;20189;-68
2020/12/17 00:51:42;;;;;;;78.10;18.77;;;4.00;99.90;;;;;;5072521;28;20217;-68
2020/12/17 00:54:08;;;;;;;78.63;19.60;;;4.00;99.90;;;;;;5071963;28;20742;-72
2020/12/17 00:56:35;;;;;;;78.75;20.27;;;4.00;99.90;;;;;;5071872;28;20689;-70
2020/12/17 00:59:01;;;;;;;81.72;20.63;;;4.00;99.90;;;;;;5071849;28;20212;-69
2020/12/17 01:01:28;;;;;;;81.47;20.98;;;4.00;99.90;;;;;;5071680;28;20268;-68
2020/12/17 01:03:54;;;;;;;79.25;19.77;;;4.00;99.90;;;;;;5071844;28;20301;-69
2020/12/17 01:06:21;;;;;;;82.10;21.83;;;4.00;99.90;;;;;;5071767;28;20235;-72
2020/12/17 01:08:47;;;;;;;82.63;19.35;;;4.00;99.90;;;;;;5071612;28;20667;-69
2020/12/17 01:11:13;;;;;;;77.82;19.77;;;4.00;99.90;;;;;;5071692;28;20201;-70
2020/12/17 01:13:40;;;;;;;82.47;19.60;;;4.00;99.90;;;;;;5071198;28;20233;-69
2020/12/17 01:16:09;;;;;;;80.60;20.85;;;3.90;99.90;;;;;;5071644;28;20607;-69
2020/12/17 01:18:36;;;;;;;78.18;19.38;;;3.90;99.90;;;;;;5071884;28;20334;-69
2020/12/17 01:21:04;;;;;;;81.18;20.40;;;3.90;99.90;;;;;;5071302;28;20209;-69
2020/12/17 01:23:31;;;;;;;80.78;19.50;;;3.90;99.90;;;;;;5071981;28;20229;-68
2020/12/17 01:25:57;;;;;;;80.32;20.77;;;3.90;99.90;;;;;;5071608;28;20208;-68
2020/12/17 01:28:23;;;;;;;83.22;21.52;;;3.90;99.90;;;;;;5071491;28;20581;-68
2020/12/17 01:30:50;;;;;;;82.55;20.63;;;3.90;99.90;;;;;;5071412;28;20679;-70
2020/12/17 01:33:18;;;;;;;81.43;18.73;;;3.90;99.90;;;;;;5071603;28;20235;-69
2020/12/17 01:35:45;;;;;;;82.47;20.23;;;3.80;99.90;;;;;;5071363;28;20231;-69
2020/12/17 01:38:11;;;;;;;79.68;19.90;;;3.80;99.90;;;;;;5071238;28;20518;-68
2020/12/17 01:40:38;;;;;;;81.65;20.55;;;3.80;99.90;;;;;;5071671;28;20258;-71
2020/12/17 01:43:04;;;;;;;76.00;18.98;;;3.70;99.90;;;;;;5071549;28;20252;-69
2020/12/17 01:45:30;;;;;;;79.35;21.02;;;3.70;99.90;;;;;;5071981;28;20329;-68
2020/12/17 01:47:59;;;;;;;79.40;19.60;;;3.60;99.90;;;;;;5070971;28;20398;-68
2020/12/17 01:50:25;;;;;;;78.43;18.85;;;3.60;99.90;;;;;;5071222;28;20209;-68
2020/12/17 01:52:53;;;;;;;78.30;18.23;;;3.60;99.90;;;;;;5071463;28;20233;-68
2020/12/17 01:55:20;;;;;;;76.00;18.80;;;3.50;99.90;;;;;;5071181;28;20284;-68
2020/12/17 01:57:48;;;;;;;76.85;19.23;;;3.50;99.90;;;;;;5071450;28;20262;-71
2020/12/17 02:00:18;;;;;;;74.70;18.33;;;3.50;99.90;;;;;;5071891;28;20341;-68
2020/12/17 02:02:47;;;;;;;80.15;18.60;;;3.40;99.90;;;;;;5074965;28;20235;-69
2020/12/17 02:05:14;;;;;;;77.03;19.50;;;3.40;99.90;;;;;;5074901;28;20589;-68
2020/12/17 02:07:42;;;;;;;77.65;20.92;;;3.40;99.90;;;;;;5074688;28;20225;-68
2020/12/17 02:10:10;;;;;;;74.75;18.00;;;3.30;99.90;;;;;;5074833;28;20318;-67
2020/12/17 02:12:44;;;;;;;76.13;19.50;;;3.30;99.90;;;;;;5074605;28;20638;-69
2020/12/17 02:15:10;;;;;;;78.75;18.88;;;3.30;99.90;;;;;;5074799;28;20204;-68
2020/12/17 02:17:37;;;;;;;77.25;18.27;;;3.20;99.90;;;;;;5075004;28;20205;-68
2020/12/17 02:20:04;;;;;;;79.40;19.20;;;3.20;99.90;;;;;;5074022;28;20209;-69
2020/12/17 02:22:31;;;;;;;77.80;18.23;;;3.20;99.90;;;;;;5074556;28;20736;-68
2020/12/17 02:24:58;;;;;;;75.43;17.50;;;3.10;99.90;;;;;;5074702;28;20216;-71
2020/12/17 02:27:24;;;;;;;78.70;17.15;;;3.10;99.90;;;;;;5064573;28;20229;-68
2020/12/17 02:29:51;;;;;;;78.57;17.83;;;3.10;99.90;;;;;;5054617;28;20300;-68
2020/12/17 02:32:17;;;;;;;76.30;18.52;;;3.10;99.90;;;;;;5054637;28;20205;-68
2020/12/17 02:34:43;;;;;;;74.82;17.40;;;3.10;99.90;;;;;;5054652;28;20210;-69
2020/12/17 02:37:10;;;;;;;78.68;18.65;;;3.00;99.90;;;;;;5054379;28;20202;-68
2020/12/17 02:39:36;;;;;;;77.45;19.52;;;3.00;99.90;;;;;;5054508;28;20216;-68
2020/12/17 02:42:04;;;;;;;76.60;18.13;;;3.00;99.90;;;;;;5054333;28;20572;-68
2020/12/17 02:44:30;;;;;;;79.78;18.40;;;2.90;99.90;;;;;;5054506;28;20211;-69
2020/12/17 02:46:56;;;;;;;77.10;18.55;;;2.90;99.90;;;;;;5054015;28;20288;-69
2020/12/17 02:49:23;;;;;;;80.93;20.45;;;2.90;99.90;;;;;;5053990;28;20719;-68
2020/12/17 02:51:49;;;;;;;77.53;18.80;;;2.90;99.90;;;;;;5053322;28;20205;-68
2020/12/17 02:54:15;;;;;;;76.80;18.23;;;2.90;99.90;;;;;;5054233;28;20591;-68
2020/12/17 02:56:42;;;;;;;77.65;19.63;;;2.90;99.90;;;;;;5053762;28;20225;-69
2020/12/17 02:59:09;;;;;;;76.90;18.35;;;2.80;99.90;;;;;;5053806;28;20241;-69
2020/12/17 03:01:35;;;;;;;76.00;18.50;;;2.80;99.90;;;;;;5053968;28;20573;-69
2020/12/17 03:04:02;;;;;;;79.32;18.60;;;2.80;99.90;;;;;;5053568;28;20248;-68
2020/12/17 03:06:28;;;;;;;80.07;18.55;;;2.80;99.90;;;;;;5054174;28;20233;-68
2020/12/17 03:08:55;;;;;;;79.00;18.80;;;2.70;99.90;;;;;;5053815;28;20225;-71
2020/12/17 03:11:21;;;;;;;80.20;19.25;;;2.70;99.90;;;;;;5054070;28;20205;-69
2020/12/17 03:13:47;;;;;;;80.22;17.45;;;2.70;99.90;;;;;;5052723;28;20320;-69
2020/12/17 03:16:14;;;;;;;77.45;19.35;;;2.60;99.90;;;;;;5053423;28;20217;-68
2020/12/17 03:18:41;;;;;;;84.90;20.75;;;2.70;99.90;;;;;;5053749;28;20579;-69
2020/12/17 03:21:07;;;;;;;79.15;18.70;;;2.60;99.90;;;;;;5053747;28;20300;-68
2020/12/17 03:23:33;;;;;;;80.40;18.83;;;2.60;99.90;;;;;;5053458;28;20222;-69
2020/12/17 03:26:00;;;;;;;78.43;19.38;;;2.60;99.90;;;;;;5069275;28;20297;-68
2020/12/17 03:28:26;;;;;;;82.70;18.70;;;2.50;99.90;;;;;;5073467;28;20634;-68
2020/12/17 03:30:52;;;;;;;77.95;18.75;;;2.50;99.90;;;;;;5073281;28;20679;-68
2020/12/17 03:33:20;;;;;;;80.07;19.00;;;2.50;99.90;;;;;;5073302;28;20708;-68
2020/12/17 03:35:46;;;;;;;82.32;20.00;;;2.40;99.90;;;;;;5073354;28;20266;-68
2020/12/17 03:38:12;;;;;;;76.93;19.20;;;2.40;99.90;;;;;;5073329;28;20235;-68
2020/12/17 03:40:39;;;;;;;78.80;19.70;;;2.40;99.90;;;;;;5073461;28;20578;-68
2020/12/17 03:43:05;;;;;;;80.22;19.52;;;2.40;99.90;;;;;;5073021;28;20225;-68
2020/12/17 03:45:31;;;;;;;82.28;19.60;;;2.40;99.90;;;;;;5072947;28;20220;-70
2020/12/17 03:47:58;;;;;;;76.03;18.50;;;2.30;99.90;;;;;;5072585;28;20201;-69
2020/12/17 03:50:25;;;;;;;77.47;19.90;;;2.30;99.90;;;;;;5073167;28;20209;-69
2020/12/17 03:52:51;;;;;;;76.00;19.17;;;2.30;99.90;;;;;;5072693;28;20271;-71
2020/12/17 03:55:18;;;;;;;76.50;18.95;;;2.30;99.90;;;;;;5073147;28;20204;-69
2020/12/17 03:57:45;;;;;;;78.63;18.17;;;2.30;99.90;;;;;;5063325;28;20295;-68
2020/12/17 04:00:11;;;;;;;81.05;18.88;;;2.30;99.90;;;;;;5052569;28;20245;-68
2020/12/17 04:02:37;;;;;;;76.15;19.15;;;2.40;99.90;;;;;;5052393;28;20233;-68
2020/12/17 04:05:04;;;;;;;76.57;18.60;;;2.30;99.90;;;;;;5052917;28;20259;-68
2020/12/17 04:07:31;;;;;;;81.78;20.17;;;2.30;99.90;;;;;;5052330;28;20209;-70
2020/12/17 04:09:57;;;;;;;80.95;20.38;;;2.40;99.90;;;;;;5052658;28;20206;-67
2020/12/17 04:12:24;;;;;;;75.00;17.50;;;2.30;99.90;;;;;;5052232;28;20237;-68
2020/12/17 04:14:50;;;;;;;75.50;17.67;;;2.30;99.90;;;;;;5052659;28;20190;-71
2020/12/17 04:17:16;;;;;;;79.68;18.75;;;2.30;99.90;;;;;;5052440;28;20316;-69
2020/12/17 04:19:43;;;;;;;78.75;18.20;;;2.40;99.90;;;;;;5052557;28;20240;-68
2020/12/17 04:22:16;;;;;;;78.47;18.73;;;2.40;99.90;;;;;;5052275;28;20259;-68
2020/12/17 04:24:44;;;;;;;77.22;16.60;;;2.50;99.90;;;;;;5051606;28;20194;-70
2020/12/17 04:27:10;;;;;;;80.07;18.67;;;2.50;99.90;;;;;;5052134;28;20661;-69
2020/12/17 04:29:36;;;;;;;81.88;19.75;;;2.60;99.90;;;;;;5051061;28;20739;-68
2020/12/17 04:32:03;;;;;;;76.60;18.65;;;2.60;99.90;;;;;;5052193;28;20240;-68
2020/12/17 04:34:29;;;;;;;80.75;19.60;;;2.60;99.90;;;;;;5052109;28;20209;-68
2020/12/17 04:36:56;;;;;;;77.60;18.17;;;2.60;99.90;;;;;;5051869;28;20261;-68
2020/12/17 04:39:22;;;;;;;77.97;17.42;;;2.60;99.90;;;;;;5051883;28;20213;-68
2020/12/17 04:41:52;;;;;;;78.85;18.23;;;2.60;99.90;;;;;;5051797;28;20216;-68
2020/12/17 04:44:19;;;;;;;77.57;18.20;;;2.60;99.90;;;;;;5051700;28;20232;-68
2020/12/17 04:46:59;;;;;;;79.45;18.50;;;2.60;99.90;;;;;;5052108;28;20203;-68
2020/12/17 04:49:28;;;;;;;78.63;18.23;;;2.60;99.90;;;;;;5051859;28;20202;-68
2020/12/17 04:51:56;;;;;;;77.47;18.52;;;2.60;99.90;;;;;;5052035;28;20632;-68
2020/12/17 04:54:24;;;;;;;73.70;16.85;;;2.60;99.90;;;;;;5051554;28;20222;-68
2020/12/17 04:56:59;;;;;;;80.10;18.92;;;2.50;99.90;;;;;;5051840;28;20234;-68
2020/12/17 04:59:44;;;;;;;75.80;17.95;;;2.50;99.90;;;;;;5051601;28;20644;-68
2020/12/17 05:02:11;;;;;;;75.75;17.27;;;2.50;99.90;;;;;;5064048;28;20616;-66
2020/12/17 05:04:40;;;;;;;81.57;19.67;;;2.50;99.90;;;;;;5071540;28;20201;-70
2020/12/17 05:07:07;;;;;;;80.40;18.80;;;2.50;99.90;;;;;;5071423;28;20676;-66
2020/12/17 05:09:35;;;;;;;80.70;19.85;;;2.50;99.90;;;;;;5071526;28;20259;-70
2020/12/17 05:12:03;;;;;;;79.82;18.67;;;2.50;99.90;;;;;;5071216;28;20232;-68
2020/12/17 05:14:29;;;;;;;74.88;17.00;;;2.50;99.90;;;;;;5071418;28;20209;-68
2020/12/17 05:16:56;;;;;;;79.40;19.08;;;2.50;99.90;;;;;;5087022;22;20222;-66
2020/12/17 05:19:23;;;;;;;79.25;17.35;;;2.50;99.90;;;;;;5050256;28;20215;-67
2020/12/17 05:21:50;;;;;;;79.47;19.90;;;2.50;99.90;;;;;;5051058;28;20211;-66
2020/12/17 05:24:16;;;;;;;81.13;19.38;;;2.50;99.90;;;;;;5051159;28;20248;-67
2020/12/17 05:26:42;;;;;;;77.40;17.20;;;2.50;99.90;;;;;;5051264;28;20227;-67
2020/12/17 05:29:12;;;;;;;80.88;18.52;;;2.50;99.90;;;;;;5051924;28;20217;-66
2020/12/17 05:31:38;;;;;;;76.53;16.70;;;2.50;99.90;;;;;;5051378;28;20219;-66
2020/12/17 05:34:05;;;;;;;78.28;17.67;;;2.50;99.90;;;;;;5049587;28;20267;-67
2020/12/17 05:36:32;;;;;;;75.28;17.65;;;2.50;99.90;;;;;;5053696;28;20652;-67
2020/12/17 05:39:09;;;;;;;84.20;20.33;;;2.50;99.90;;;;;;5054891;28;20243;-66
2020/12/17 05:41:36;;;;;;;76.82;17.50;;;2.50;99.90;;;;;;5055326;28;20236;-67
2020/12/17 05:44:15;;;;;;;75.25;18.02;;;2.50;99.90;;;;;;5054916;28;20252;-66
2020/12/17 05:46:42;;;;;;;75.55;17.52;;;2.40;99.90;;;;;;5054920;28;20256;-67
2020/12/17 05:49:14;;;;;;;77.65;18.65;;;2.40;99.90;;;;;;5055026;28;20646;-67
2020/12/17 05:51:41;;;;;;;79.05;17.60;;;2.40;99.90;;;;;;5055263;28;20213;-66
2020/12/17 05:54:11;;;;;;;74.68;17.05;;;2.40;99.90;;;;;;5054832;28;20206;-67
2020/12/17 05:56:37;;;;;;;80.22;19.50;;;2.40;99.90;;;;;;5054577;28;20272;-67
2020/12/17 05:59:05;;;;;;;77.03;17.73;;;2.30;99.90;;;;;;5054408;28;20224;-67
2020/12/17 06:01:33;;;;;;;75.20;16.27;;;2.30;99.90;;;;;;5054623;28;20316;-66
2020/12/17 06:04:13;;;;;;;79.07;19.35;;;2.30;99.90;;;;;;5054409;28;20209;-66
2020/12/17 06:06:44;;;;;;;79.15;18.70;;;2.30;99.90;;;;;;5056961;28;20236;-66
2020/12/17 06:09:20;;;;;;;76.95;17.17;;;2.30;99.90;;;;;;5074447;28;20205;-66
2020/12/17 06:11:46;;;;;;;76.45;17.13;;;2.30;99.90;;;;;;5074585;28;20630;-67
2020/12/17 06:14:14;;;;;;;75.07;16.17;;;2.30;99.90;;;;;;5074675;28;20205;-67
2020/12/17 06:16:44;;;;;;;78.80;18.83;;;2.30;99.90;;;;;;5074245;28;20233;-66
2020/12/17 06:19:20;;;;;;;75.47;17.33;;;2.40;99.90;;;;;;5073952;28;20209;-66
2020/12/17 06:21:46;;;;;;;77.60;17.60;;;2.40;99.90;;;;;;5074930;28;20205;-67
2020/12/17 06:24:14;;;;;;;76.07;18.00;;;2.40;99.90;;;;;;5074204;28;20560;-67
2020/12/17 06:26:49;;;;;;;80.72;17.92;;;2.40;99.90;;;;;;5074425;28;20662;-67
2020/12/17 06:29:18;;;;;;;78.65;17.42;;;2.40;99.90;;;;;;5074026;28;20211;-66
2020/12/17 06:31:57;;;;;;;73.03;16.35;;;2.40;99.90;;;;;;5074345;28;20215;-67
2020/12/17 06:34:24;;;;;;;74.93;17.02;;;2.40;99.90;;;;;;5073787;28;20687;-67
2020/12/17 06:36:57;;;;;;;75.28;17.35;;;2.40;99.90;;;;;;5073960;28;20233;-66
2020/12/17 06:39:24;;;;;;;73.15;16.45;;;2.40;99.90;;;;;;5069993;28;20249;-66
2020/12/17 06:41:50;;;;;;;78.63;18.58;;;2.40;99.90;;;;;;5054105;28;20288;-66
2020/12/17 06:44:27;;;;;;;79.82;18.70;;;2.50;99.90;;;;;;5053878;28;20262;-65
2020/12/17 06:46:56;;;;;;;78.50;18.85;;;2.50;99.90;;;;;;5053071;28;20583;-66
2020/12/17 06:49:27;;;;;;;75.35;17.63;;;2.50;99.90;;;;;;5053864;28;20210;-65
2020/12/17 06:52:05;;;;;;;80.00;18.55;;;2.50;99.90;;;;;;5053834;28;20206;-67
2020/12/17 06:54:37;;;;;;;74.85;17.10;;;2.50;99.90;;;;;;5053828;28;20209;-66
2020/12/17 06:57:06;;;;;;;77.85;18.17;;;2.50;99.90;;;;;;5053311;28;20236;-66
2020/12/17 06:59:32;;;;;;;80.20;19.38;;;2.50;99.90;;;;;;5053297;28;20570;-66
2020/12/17 07:02:00;;;;;;;82.90;17.08;;;2.50;99.90;;;;;;5053607;28;20209;-67
2020/12/17 07:04:45;;;;;;;78.68;16.80;;;2.50;99.90;;;;;;5053589;28;20201;-66
2020/12/17 07:07:17;;;;;;;73.13;16.77;;;2.50;99.90;;;;;;5053517;28;20225;-66
2020/12/17 07:09:46;;;;;;;75.38;17.88;;;2.50;99.90;;;;;;5053197;28;20206;-66
2020/12/17 07:12:13;;;;;;;75.18;17.50;;;2.50;99.90;;;;;;5045294;28;20556;-66
2020/12/17 07:14:41;;;;;;;80.05;16.77;;;2.60;99.90;;;;;;5033631;28;20214;-66
2020/12/17 07:17:09;;;;;;;73.22;16.50;;;2.60;99.90;;;;;;5033213;28;20664;-66
2020/12/17 07:19:40;;;;;;;77.15;18.15;;;2.70;99.90;;;;;;5033196;28;20203;-66
2020/12/17 07:22:10;;;;;;;79.50;18.20;;;2.70;99.90;;;;;;5033309;28;20210;-66
2020/12/17 07:24:38;;;;;;;76.85;15.80;;;2.80;99.90;;;;;;5033056;28;20268;-66
2020/12/17 07:27:09;;;;;;;82.10;17.90;;;2.80;99.90;;;;;;5034574;28;20223;-67
2020/12/17 07:29:45;;;;;;;74.88;17.10;;;2.80;99.90;;;;;;5033831;28;20245;-66
2020/12/17 07:32:33;;;;;;;75.97;17.77;;;2.90;99.90;;;;;;5033281;28;20210;-66
2020/12/17 07:35:16;;;;;;;73.40;17.00;;;2.90;99.90;;;;;;5032780;28;20249;-65
2020/12/17 07:37:45;;;;;;;76.32;17.30;;;3.00;99.90;;;;;;5031935;28;20266;-67
2020/12/17 07:40:35;;;;;;;74.43;15.88;;;3.00;99.90;;;;;;5032776;28;20206;-66
2020/12/17 07:43:07;;;;;;;75.82;16.42;;;3.10;99.90;;;;;;5032732;28;20202;-66
2020/12/17 07:45:51;;;;;;;75.20;16.00;;;3.10;99.90;;;;;;5042756;28;20216;-65
2020/12/17 07:48:39;;;;;;;77.43;17.27;;;3.20;99.90;;;;;;5052647;28;20272;-65
2020/12/17 07:51:26;;;;;;;76.07;16.63;;;3.30;99.90;;;;;;5052537;28;20732;-65
2020/12/17 07:53:53;;;;;;;76.22;17.23;;;3.30;99.90;;;;;;5052808;28;20201;-66
2020/12/17 07:56:20;;;;;;;74.55;16.23;;;3.40;99.90;;;;;;5052301;28;20754;-65
2020/12/17 07:58:47;;;;;;;75.07;17.48;;;3.40;99.90;;;;;;5052428;28;20225;-65
2020/12/17 08:01:15;;;;;;;71.50;16.05;;;3.50;99.90;;;;;;5052394;28;20209;-67
2020/12/17 08:03:43;;;;;;;75.78;17.08;;;3.50;99.90;;;;;;5052411;28;20590;-66
2020/12/17 08:06:11;;;;;;;77.70;16.27;;;3.60;99.90;;;;;;5052138;28;20244;-66
2020/12/17 08:08:39;;;;;;;76.35;17.95;;;3.60;99.90;;;;;;5052514;28;20251;-66
2020/12/17 08:11:07;;;;;;;74.30;17.25;;;3.60;99.90;;;;;;5052214;28;20205;-66
2020/12/17 08:13:34;;;;;;;75.40;17.08;;;3.70;99.90;;;;;;5052243;28;20630;-67
2020/12/17 08:16:04;;;;;;;72.20;15.63;;;3.70;99.90;;;;;;5052102;28;20217;-67
2020/12/17 08:18:32;;;;;;;73.70;16.35;;;3.80;99.90;;;;;;5051710;28;20282;-66
2020/12/17 08:21:09;;;;;;;73.25;16.98;;;3.80;99.90;;;;;;5052420;28;20572;-65
2020/12/17 08:23:39;;;;;;;75.78;17.55;;;3.90;99.90;;;;;;5052137;28;20239;-67
2020/12/17 08:26:07;;;;;;;71.70;15.65;;;4.00;99.90;;;;;;5052125;28;20206;-66
2020/12/17 08:28:35;;;;;;;72.50;16.27;;;4.10;99.90;;;;;;5051729;28;20233;-66
2020/12/17 08:31:06;;;;;;;73.80;16.45;;;4.20;99.90;;;;;;5052401;28;20209;-66
2020/12/17 08:33:35;;;;;;;70.38;14.95;;;4.30;99.90;;;;;;5051891;28;20217;-65
2020/12/17 08:36:05;;;;;;;70.82;14.50;;;4.40;99.90;;;;;;5051933;28;20250;-66
2020/12/17 08:38:34;;;;;;;73.85;16.10;;;4.60;99.90;;;;;;5051342;28;20720;-66
2020/12/17 08:41:02;;;;;;;70.95;14.70;;;4.70;99.90;;;;;;5051843;28;20205;-65
2020/12/17 08:43:33;;;;;;;67.78;13.73;;;4.90;99.90;;;;;;5051853;28;20210;-65
2020/12/17 08:46:01;;;;;;;71.97;14.32;;;5.00;99.90;;;;;;5051897;28;20216;-65
2020/12/17 08:48:32;;;;;;;71.10;12.65;;;5.20;99.90;;;;;;5051532;28;20669;-66
2020/12/17 08:50:58;;;;;;;66.47;11.82;;;5.40;99.90;;;;;;5051864;28;20213;-66
2020/12/17 08:53:27;;;;;;;65.50;11.30;;;5.50;99.90;;;;;;5051544;28;20571;-67
2020/12/17 08:56:13;;;;;;;68.15;12.65;;;5.80;99.90;;;;;;5051563;28;20205;-66
2020/12/17 08:58:47;;;;;;;64.22;10.05;;;5.90;99.90;;;;;;5051183;28;20723;-66
2020/12/17 09:01:18;;;;;;;68.75;11.70;;;6.00;99.90;;;;;;5051538;28;20209;-67
2020/12/17 09:03:46;;;;;;;66.47;10.90;;;6.20;99.90;;;;;;5051406;28;20213;-66
2020/12/17 09:06:13;;;;;;;65.32;11.13;;;6.20;99.90;;;;;;5051202;28;20673;-65
2020/12/17 09:08:39;;;;;;;61.90;9.10;;;6.30;99.30;;;;;;5050913;28;20206;-67
2020/12/17 09:11:27;;;;;;;65.90;9.68;;;6.40;99.40;;;;;;5050912;28;20206;-67
2020/12/17 09:14:01;;;;;;;64.03;9.10;;;6.60;93.50;;;;;;5051449;28;20301;-66
2020/12/17 09:16:29;;;;;;;68.50;9.50;;;6.70;93.00;;;;;;5051069;28;20320;-66
2020/12/17 09:18:56;;;;;;;62.78;7.90;;;6.80;92.00;;;;;;5050978;28;20248;-65
2020/12/17 09:21:22;;;;;;;63.80;7.82;;;6.80;90.40;;;;;;5051240;28;20242;-65
2020/12/17 09:23:57;;;;;;;62.42;8.00;;;6.90;85.10;;;;;;5051767;28;20347;-65
2020/12/17 09:26:24;;;;;;;61.58;7.45;;;6.90;85.20;;;;;;5052575;28;20604;-66
2020/12/17 09:29:00;;;;;;;61.53;8.00;;;7.00;76.80;;;;;;5059464;28;20579;-66
2020/12/17 09:31:34;;;;;;;61.55;8.18;;;7.00;66.60;;;;;;5052056;28;20580;-67
2020/12/17 09:34:12;;;;;;;63.10;8.95;;;7.10;66.80;;;;;;5051700;28;20230;-67
2020/12/17 09:36:41;;;;;;;63.17;7.70;;;7.20;63.40;;;;;;5049344;28;20600;-67
2020/12/17 09:39:09;;;;;;;61.58;7.10;;;7.20;56.20;;;;;;5051310;28;20226;-67
2020/12/17 09:41:37;;;;;;;61.77;7.90;;;7.20;61.20;;;;;;5051080;28;20258;-67
2020/12/17 09:44:05;;;;;;;65.32;8.40;;;7.30;65.90;;;;;;5050938;28;20830;-67
2020/12/17 09:46:41;;;;;;;60.40;7.75;;;7.50;63.80;;;;;;5051148;28;20318;-66
2020/12/17 09:49:21;;;;;;;61.40;7.90;;;7.80;66.80;;;;;;5050998;28;20200;-66
2020/12/17 09:52:01;;;;;;;60.83;6.80;;;8.10;51.40;;;;;;5050981;28;20453;-67
2020/12/17 09:54:27;;;;;;;60.47;7.33;;;8.40;30.50;;;;;;5050800;28;20450;-67
2020/12/17 09:57:05;;;;;;;60.77;6.73;;;8.70;9.20;;;;;;5051221;28;20474;-66
2020/12/17 09:59:31;;;;;;;62.37;7.67;;;8.90;5.10;;;;;;5050634;28;20956;-66
2020/12/17 10:01:58;;;;;;;61.43;7.27;;;9.10;1.00;;;;;;5050851;28;20458;-66
2020/12/17 10:04:24;;;;;;;61.50;6.90;;;9.50;1.00;;;;;;5050848;28;20458;-66
2020/12/17 10:06:51;;;;;;;60.80;7.00;;;10.20;1.00;;;;;;5051395;28;20475;-67
2020/12/17 10:09:17;;;;;;;59.60;6.43;;;11.00;1.00;;;;;;5052099;28;20448;-67
2020/12/17 10:11:48;;;;;;;60.30;6.33;;;12.00;1.00;;;;;;5052092;28;20448;-67
2020/12/17 10:14:16;;;;;;;60.23;6.40;;;13.10;1.00;;;;;;5052356;28;20484;-67
2020/12/17 10:16:42;;;;;;;59.57;6.03;;;14.00;1.00;;;;;;5052462;28;20586;-67
2020/12/17 10:19:09;;;;;;;58.73;5.50;;;14.70;1.00;;;;;;5052303;28;20489;-67
2020/12/17 10:21:35;;;;;;;62.50;6.07;;;15.60;1.00;;;;;;5053361;28;20867;-67
2020/12/17 10:24:02;;;;;;;59.07;5.83;;;16.60;1.00;;;;;;5056209;28;20470;-67
2020/12/17 10:26:28;;;;;;;60.73;5.57;;;17.40;1.00;;;;;;5056017;28;20477;-67
2020/12/17 10:28:54;;;;;;;59.77;5.63;;;18.00;1.00;;;;;;5054562;28;20458;-67
2020/12/17 10:31:22;;;;;;;58.70;5.40;;;18.50;1.00;;;;;;5054231;28;20520;-67
2020/12/17 10:33:48;;;;;;;58.20;5.40;;;18.60;1.00;;;;;;5054161;28;20520;-67
2020/12/17 10:36:14;;;;;;;59.03;5.13;;;18.20;1.00;;;;;;5053755;28;20459;-67
2020/12/17 10:38:41;;;;;;;57.77;4.67;;;17.10;1.00;;;;;;5053939;28;20529;-67
2020/12/17 10:41:07;;;;;;;58.40;5.07;;;16.20;1.00;;;;;;5053889;28;20893;-67
2020/12/17 10:43:33;;;;;;;59.00;5.03;;;16.30;1.00;;;;;;5054079;28;20450;-67
2020/12/17 10:46:00;;;;;;;57.57;4.40;;;17.10;1.00;;;;;;5053597;28;21020;-67
2020/12/17 10:48:27;;;;;;;57.37;4.30;;;17.30;1.00;;;;;;5053693;28;20454;-67
2020/12/17 10:50:53;;;;;;;57.30;4.87;;;16.50;1.00;;;;;;5053586;28;20461;-67
2020/12/17 10:53:20;;;;;;;58.60;5.47;;;16.10;1.00;;;;;;5053732;28;20495;-67
2020/12/17 10:55:46;;;;;;;61.70;4.40;;;16.70;1.00;;;;;;5053746;28;20539;-67
2020/12/17 10:58:13;;;;;;;60.10;5.37;;;17.70;1.00;;;;;;5053317;28;20482;-67
2020/12/17 11:00:39;;;;;;;61.67;5.40;;;18.60;1.00;;;;;;5053738;28;20455;-67
2020/12/17 11:03:07;;;;;;;58.10;4.70;;;19.40;1.00;;;;;;5053337;28;20786;-67
2020/12/17 11:05:35;;;;;;;58.27;4.33;;;20.00;1.00;;;;;;5053748;28;20460;-67
2020/12/17 11:08:02;;;;;;;60.20;4.43;;;20.70;1.00;;;;;;5053124;28;21006;-67
2020/12/17 11:10:28;;;;;;;58.50;4.80;;;21.00;1.00;;;;;;5053561;28;20453;-67
2020/12/17 11:12:54;;;;;;;59.40;4.80;;;21.40;1.00;;;;;;5053350;28;20452;-67
2020/12/17 11:15:21;;;;;;;59.20;4.40;;;21.70;1.00;;;;;;5053471;28;20455;-67
2020/12/17 11:17:47;;;;;;;62.40;5.07;;;21.30;1.00;;;;;;5058150;22;21049;-68
2020/12/17 11:20:16;;;;;;;58.40;4.10;;;20.20;1.00;;;;;;5013532;28;20817;-67
2020/12/17 11:22:43;;;;;;;58.43;4.80;;;18.90;1.00;;;;;;5013521;28;20990;-70
2020/12/17 11:25:09;;;;;;;58.80;4.87;;;17.70;1.00;;;;;;5013941;28;20449;-68
2020/12/17 11:27:37;;;;;;;59.50;5.20;;;16.60;1.00;;;;;;5013447;28;20466;-69
2020/12/17 11:30:05;;;;;;;59.40;5.10;;;15.70;1.00;;;;;;5013226;28;20446;-68
2020/12/17 11:32:32;;;;;;;57.77;4.50;;;15.00;1.00;;;;;;5013831;28;20798;-68
2020/12/17 11:34:58;;;;;;;59.67;5.20;;;14.50;1.00;;;;;;5012935;28;20451;-68
2020/12/17 11:37:24;;;;;;;60.40;5.30;;;14.00;1.00;;;;;;5013373;28;20589;-68
2020/12/17 11:39:51;;;;;;;57.70;4.67;;;13.80;1.00;;;;;;5013094;28;20453;-68
2020/12/17 11:42:20;;;;;;;58.90;5.00;;;13.60;1.00;;;;;;5013219;28;20450;-68
2020/12/17 11:44:46;;;;;;;59.67;5.40;;;13.40;1.00;;;;;;5012934;28;20454;-68
2020/12/17 11:47:13;;;;;;;59.70;5.70;;;13.20;1.00;;;;;;5013284;28;20485;-68
2020/12/17 11:49:39;;;;;;;61.10;6.50;;;13.00;1.00;;;;;;5012772;28;20454;-68
2020/12/17 11:52:05;;;;;;;59.87;6.20;;;12.80;1.00;;;;;;5013011;28;20457;-67
2020/12/17 11:54:32;;;;;;;59.17;4.97;;;12.70;1.00;;;;;;5013113;28;20691;-68
2020/12/17 11:56:59;;;;;;;59.80;5.40;;;12.70;1.00;;;;;;5013066;28;20457;-67
2020/12/17 11:59:28;;;;;;;58.97;5.30;;;12.70;1.00;;;;;;5012580;28;20454;-68
2020/12/17 12:01:54;;;;;;;59.37;5.30;;;12.80;1.00;;;;;;5012442;28;20554;-69
2020/12/17 12:04:20;;;;;;;58.77;5.50;;;12.90;1.00;;;;;;5012667;28;20446;-68
2020/12/17 12:06:48;;;;;;;61.47;5.73;;;13.00;1.00;;;;;;5012651;28;20477;-68
2020/12/17 12:09:18;;;;;;;58.83;5.17;;;13.00;1.00;;;;;;5012491;28;20464;-68
2020/12/17 12:11:45;;;;;;;59.77;5.40;;;13.00;1.00;;;;;;5012319;28;20453;-68
2020/12/17 12:14:12;;;;;;;59.13;5.33;;;13.00;1.00;;;;;;5012393;28;20458;-68
2020/12/17 12:16:39;;;;;;;58.87;5.70;;;13.00;1.00;;;;;;5012376;28;20461;-69
2020/12/17 12:19:05;;;;;;;61.00;6.20;;;12.90;1.00;;;;;;5012004;28;20489;-69
2020/12/17 12:21:31;;;;;;;59.90;6.00;;;12.80;1.00;;;;;;5012320;28;20457;-69
2020/12/17 12:23:58;;;;;;;60.80;5.40;;;12.60;1.00;;;;;;5012260;28;20458;-69
2020/12/17 12:26:24;;;;;;;60.00;5.20;;;12.50;1.00;;;;;;5012289;28;20460;-71
2020/12/17 12:28:50;;;;;;;60.30;5.53;;;12.30;1.00;;;;;;5012038;28;20505;-70
2020/12/17 12:31:18;;;;;;;59.93;6.17;;;12.10;1.00;;;;;;5012554;28;20450;-70
2020/12/17 12:33:44;;;;;;;60.40;6.53;;;12.00;1.00;;;;;;5012001;28;20454;-69
2020/12/17 12:36:12;;;;;;;63.40;7.13;;;11.90;1.00;;;;;;5012345;28;20448;-69
2020/12/17 12:38:38;;;;;;;59.67;6.10;;;11.90;1.00;;;;;;5011986;28;21016;-69
2020/12/17 12:41:05;;;;;;;60.57;6.43;;;11.90;1.00;;;;;;5012296;28;20532;-69
2020/12/17 12:43:31;;;;;;;60.37;6.27;;;11.90;1.00;;;;;;5012182;28;20449;-69
2020/12/17 12:45:58;;;;;;;60.67;6.63;;;11.90;1.00;;;;;;5011475;28;20462;-69